createdAt,value
2022-12-26T00:01:05.889Z,13.93
2022-12-26T00:03:33.011Z,15.90
2022-12-26T00:05:59.988Z,17.80
2022-12-26T00:08:26.895Z,15.70
2022-12-26T00:10:53.815Z,18.07
2022-12-26T00:13:38.717Z,19.80
2022-12-26T00:16:17.397Z,18.00
2022-12-26T00:18:45.019Z,16.57
2022-12-26T00:21:13.851Z,18.17
2022-12-26T00:23:41.343Z,19.47
2022-12-26T00:26:10.683Z,20.17
2022-12-26T00:28:38.114Z,19.97
2022-12-26T00:31:20.614Z,19.07
2022-12-26T00:33:48.786Z,16.60
2022-12-26T00:36:23.401Z,17.33
2022-12-26T00:38:51.665Z,14.97
2022-12-26T00:41:20.148Z,15.47
2022-12-26T00:43:47.767Z,15.03
2022-12-26T00:46:15.493Z,15.30
2022-12-26T00:48:42.961Z,15.00
2022-12-26T00:51:09.947Z,14.80
2022-12-26T00:53:37.449Z,15.30
2022-12-26T00:56:04.622Z,16.83
2022-12-26T00:58:31.878Z,14.20
2022-12-26T01:01:20.030Z,12.73
2022-12-26T01:03:48.599Z,15.57
2022-12-26T01:06:16.180Z,13.23
2022-12-26T01:08:43.782Z,17.00
2022-12-26T01:11:13.689Z,16.60
2022-12-26T01:13:41.064Z,13.30
2022-12-26T01:16:08.857Z,11.33
2022-12-26T01:18:36.439Z,12.50
2022-12-26T01:21:08.216Z,12.27
2022-12-26T01:23:35.441Z,11.77
2022-12-26T01:26:15.264Z,11.80
2022-12-26T01:28:43.005Z,11.20
2022-12-26T01:31:10.026Z,11.27
2022-12-26T01:33:36.982Z,14.10
2022-12-26T01:36:04.077Z,12.00
2022-12-26T01:38:30.903Z,10.50
2022-12-26T01:41:16.876Z,10.33
2022-12-26T01:44:05.912Z,10.23
2022-12-26T01:46:44.359Z,11.83
2022-12-26T01:49:37.595Z,10.30
2022-12-26T01:52:19.502Z,10.90
2022-12-26T01:54:50.837Z,9.83
2022-12-26T01:57:42.718Z,12.10
2022-12-26T02:00:11.155Z,9.77
2022-12-26T02:02:57.619Z,11.30
2022-12-26T02:05:36.424Z,11.03
2022-12-26T02:08:21.260Z,9.20
2022-12-26T02:10:58.608Z,10.90
2022-12-26T02:13:26.205Z,10.00
2022-12-26T02:15:53.344Z,9.50
2022-12-26T02:18:20.350Z,10.07
2022-12-26T02:21:31.883Z,8.47
2022-12-26T02:24:07.784Z,9.30
2022-12-26T02:27:19.134Z,8.30
2022-12-26T02:30:08.427Z,7.87
2022-12-26T02:33:21.979Z,8.70
2022-12-26T02:36:00.628Z,9.23
2022-12-26T02:38:48.402Z,8.90
2022-12-26T02:41:47.384Z,7.63
2022-12-26T02:44:46.616Z,8.00
2022-12-26T02:47:28.006Z,8.90
2022-12-26T02:50:36.707Z,9.60
2022-12-26T02:53:51.784Z,10.83
2022-12-26T02:56:53.714Z,10.60
2022-12-26T03:00:08.471Z,8.77
2022-12-26T03:03:12.798Z,10.47
2022-12-26T03:06:11.875Z,9.03
2022-12-26T03:09:05.821Z,10.73
2022-12-26T03:12:01.972Z,9.50
2022-12-26T03:14:35.862Z,9.70
2022-12-26T03:17:22.369Z,7.93
2022-12-26T03:20:04.501Z,10.37
2022-12-26T03:22:48.790Z,9.67
2022-12-26T03:26:20.480Z,9.20
2022-12-26T03:28:47.985Z,16.40
2022-12-26T03:31:16.359Z,11.80
2022-12-26T03:34:05.916Z,11.47
2022-12-26T03:37:21.190Z,11.37
2022-12-26T03:40:36.518Z,12.30
2022-12-26T03:43:39.060Z,11.83
2022-12-26T03:47:13.251Z,10.13
2022-12-26T03:50:12.287Z,11.40
2022-12-26T03:53:20.228Z,10.93
2022-12-26T03:56:50.802Z,11.70
2022-12-26T03:59:47.550Z,11.63
2022-12-26T04:02:35.514Z,13.50
2022-12-26T04:05:24.299Z,12.13
2022-12-26T04:08:18.944Z,14.23
2022-12-26T04:11:15.015Z,15.37
2022-12-26T04:14:24.851Z,11.60
2022-12-26T04:17:15.831Z,10.23
2022-12-26T04:20:03.953Z,10.07
2022-12-26T04:23:07.844Z,12.57
2022-12-26T04:26:05.668Z,12.27
2022-12-26T04:28:51.459Z,12.43
2022-12-26T04:31:52.326Z,11.70
2022-12-26T04:34:46.763Z,10.43
2022-12-26T04:37:40.262Z,14.07
2022-12-26T04:40:32.564Z,9.87
2022-12-26T04:43:47.033Z,13.20
2022-12-26T04:46:07.012Z,13.53
2022-12-26T04:49:03.896Z,10.87
2022-12-26T04:51:30.899Z,11.00
2022-12-26T04:53:57.764Z,9.50
2022-12-26T04:56:24.740Z,8.93
2022-12-26T04:58:52.222Z,9.57
2022-12-26T05:01:38.012Z,10.40
2022-12-26T05:04:24.032Z,11.63
2022-12-26T05:07:09.847Z,9.80
2022-12-26T05:09:36.879Z,9.43
2022-12-26T05:12:06.799Z,11.60
2022-12-26T05:14:36.063Z,10.00
2022-12-26T05:17:22.926Z,9.50
2022-12-26T05:20:09.204Z,7.63
2022-12-26T05:22:59.297Z,8.57
2022-12-26T05:26:10.391Z,8.47
2022-12-26T05:28:43.195Z,10.90
2022-12-26T05:31:17.408Z,10.30
2022-12-26T05:34:04.315Z,12.20
2022-12-26T05:36:56.526Z,10.30
2022-12-26T05:39:23.462Z,10.03
2022-12-26T05:41:50.780Z,10.23
2022-12-26T05:44:17.665Z,10.40
2022-12-26T05:46:44.598Z,9.10
2022-12-26T05:49:11.596Z,9.20
2022-12-26T05:51:38.877Z,9.90
2022-12-26T05:54:06.035Z,9.83
2022-12-26T05:56:32.972Z,9.17
2022-12-26T05:59:01.613Z,10.20
2022-12-26T06:01:30.511Z,9.73
2022-12-26T06:04:00.214Z,10.57
2022-12-26T06:06:28.433Z,9.00
2022-12-26T06:08:57.268Z,9.47
2022-12-26T06:11:26.672Z,9.80
2022-12-26T06:13:55.034Z,11.60
2022-12-26T06:16:22.189Z,10.30
2022-12-26T06:18:49.643Z,9.67
2022-12-26T06:21:19.618Z,9.50
2022-12-26T06:23:47.019Z,10.57
2022-12-26T06:26:14.196Z,11.17
2022-12-26T06:28:43.523Z,13.47
2022-12-26T06:31:24.854Z,13.27
2022-12-26T06:33:58.331Z,12.87
2022-12-26T06:36:27.388Z,14.03
2022-12-26T06:38:55.257Z,10.53
2022-12-26T06:41:24.690Z,12.30
2022-12-26T06:43:52.371Z,11.20
2022-12-26T06:46:22.768Z,13.90
2022-12-26T06:48:50.104Z,11.03
2022-12-26T06:51:23.903Z,10.13
2022-12-26T06:53:52.610Z,10.60
2022-12-26T06:56:26.235Z,10.47
2022-12-26T06:58:59.079Z,12.50
2022-12-26T07:01:28.342Z,12.90
2022-12-26T07:03:56.150Z,21.07
2022-12-26T07:06:28.088Z,18.40
2022-12-26T07:09:09.367Z,12.57
2022-12-26T07:11:39.449Z,15.73
2022-12-26T07:14:06.626Z,11.67
2022-12-26T07:16:39.034Z,10.67
2022-12-26T07:19:07.185Z,11.57
2022-12-26T07:21:40.483Z,12.73
2022-12-26T07:24:19.942Z,12.50
2022-12-26T07:26:48.258Z,11.97
2022-12-26T07:29:15.802Z,12.60
2022-12-26T07:31:42.846Z,10.40
2022-12-26T07:34:10.193Z,13.00
2022-12-26T07:36:37.106Z,14.33
2022-12-26T07:39:04.191Z,16.13
2022-12-26T07:41:50.026Z,11.83
2022-12-26T07:44:17.196Z,12.40
2022-12-26T07:46:45.991Z,12.90
2022-12-26T07:49:13.230Z,16.07
2022-12-26T07:51:41.305Z,12.80
2022-12-26T07:54:11.681Z,13.50
2022-12-26T07:56:39.950Z,14.70
2022-12-26T07:59:07.127Z,14.03
2022-12-26T08:01:34.146Z,16.17
2022-12-26T08:04:01.239Z,44.20
2022-12-26T08:06:28.203Z,38.10
2022-12-26T08:08:55.133Z,40.47
2022-12-26T08:11:23.946Z,23.23
2022-12-26T08:13:52.211Z,15.90
2022-12-26T08:16:20.640Z,14.03
2022-12-26T08:18:47.662Z,14.27
2022-12-26T08:21:14.660Z,14.90
2022-12-26T08:23:41.682Z,14.37
2022-12-26T08:26:12.051Z,14.83
2022-12-26T08:28:39.443Z,13.90
2022-12-26T08:31:12.787Z,16.20
2022-12-26T08:33:39.738Z,16.63
2022-12-26T08:36:10.267Z,17.40
2022-12-26T08:38:37.842Z,14.67
2022-12-26T08:41:05.354Z,24.83
2022-12-26T08:43:53.149Z,16.23
2022-12-26T08:46:21.861Z,17.47
2022-12-26T08:48:50.514Z,16.80
2022-12-26T08:51:22.798Z,15.40
2022-12-26T08:53:51.727Z,15.43
2022-12-26T08:56:24.527Z,18.80
2022-12-26T08:58:52.137Z,16.93
2022-12-26T09:01:24.378Z,19.77
2022-12-26T09:03:58.340Z,17.03
2022-12-26T09:06:25.932Z,17.63
2022-12-26T09:08:53.765Z,18.43
2022-12-26T09:11:26.821Z,17.83
2022-12-26T09:13:56.199Z,19.10
2022-12-26T09:16:32.713Z,18.80
2022-12-26T09:19:04.614Z,18.00
2022-12-26T09:21:32.451Z,20.33
2022-12-26T09:24:11.640Z,21.40
2022-12-26T09:26:38.817Z,24.30
2022-12-26T09:29:06.908Z,25.20
2022-12-26T09:31:35.683Z,23.10
2022-12-26T09:34:07.349Z,30.07
2022-12-26T09:36:40.541Z,21.93
2022-12-26T09:39:09.024Z,22.90
2022-12-26T09:42:06.688Z,20.00
2022-12-26T09:45:16.917Z,22.40
2022-12-26T09:48:04.952Z,27.37
2022-12-26T09:50:42.689Z,18.70
2022-12-26T09:53:19.848Z,20.30
2022-12-26T09:56:23.677Z,16.10
2022-12-26T09:59:07.914Z,17.20
2022-12-26T10:01:36.826Z,17.77
2022-12-26T10:04:29.673Z,14.87
2022-12-26T10:07:29.331Z,18.77
2022-12-26T10:10:11.380Z,23.80
2022-12-26T10:13:04.628Z,21.90
2022-12-26T10:15:55.242Z,20.43
2022-12-26T10:18:50.210Z,20.30
2022-12-26T10:21:40.103Z,21.17
2022-12-26T10:24:18.161Z,19.23
2022-12-26T10:26:50.112Z,18.23
2022-12-26T10:29:38.017Z,21.13
2022-12-26T10:32:36.443Z,21.87
2022-12-26T10:35:33.989Z,29.63
2022-12-26T10:38:27.899Z,37.33
2022-12-26T10:41:02.929Z,23.53
2022-12-26T10:43:34.940Z,19.83
2022-12-26T10:46:26.631Z,20.77
2022-12-26T10:48:54.395Z,22.20
2022-12-26T10:51:21.603Z,21.07
2022-12-26T10:53:52.158Z,25.40
2022-12-26T10:56:21.864Z,20.90
2022-12-26T10:59:15.236Z,27.60
2022-12-26T11:01:47.397Z,23.20
2022-12-26T11:07:17.224Z,21.63
2022-12-26T11:09:46.057Z,23.20
2022-12-26T11:12:36.979Z,23.30
2022-12-26T11:15:18.895Z,29.00
2022-12-26T11:17:50.562Z,29.57
2022-12-26T11:20:17.328Z,27.87
2022-12-26T11:22:45.671Z,27.43
2022-12-26T11:25:49.027Z,27.20
2022-12-26T11:28:35.984Z,27.93
2022-12-26T11:31:07.547Z,25.70
2022-12-26T11:33:45.138Z,24.57
2022-12-26T11:36:22.975Z,26.87
2022-12-26T11:39:00.307Z,23.50
2022-12-26T11:41:34.357Z,27.77
2022-12-26T11:44:10.527Z,26.00
2022-12-26T11:46:58.227Z,21.83
2022-12-26T11:49:33.978Z,29.77
2022-12-26T11:52:34.668Z,31.37
2022-12-26T11:55:01.821Z,26.77
2022-12-26T11:57:32.332Z,22.20
2022-12-26T12:00:24.626Z,25.07
2022-12-26T12:02:51.645Z,24.27
2022-12-26T12:05:24.208Z,26.37
2022-12-26T12:08:09.670Z,27.50
2022-12-26T12:10:54.132Z,42.63
2022-12-26T12:13:23.915Z,41.17
2022-12-26T12:16:25.194Z,35.20
2022-12-26T12:19:44.023Z,35.07
2022-12-26T12:22:31.834Z,33.87
2022-12-26T12:25:52.667Z,33.90
2022-12-26T12:28:56.284Z,38.73
2022-12-26T12:31:36.457Z,32.93
2022-12-26T12:34:41.902Z,41.50
2022-12-26T12:37:25.753Z,32.87
2022-12-26T12:40:42.104Z,27.50
2022-12-26T12:43:14.799Z,30.10
2022-12-26T12:45:56.677Z,28.23
2022-12-26T12:48:44.750Z,27.73
2022-12-26T12:51:51.532Z,29.10
2022-12-26T12:54:36.652Z,31.60
2022-12-26T12:57:43.605Z,28.40
2022-12-26T13:00:21.728Z,34.87
2022-12-26T13:03:01.733Z,32.37
2022-12-26T13:05:48.584Z,28.70
2022-12-26T13:08:24.485Z,25.90
2022-12-26T13:11:35.021Z,28.93
2022-12-26T13:14:21.190Z,30.33
2022-12-26T13:17:16.749Z,28.90
2022-12-26T13:20:06.050Z,29.73
2022-12-26T13:23:04.597Z,24.87
2022-12-26T13:25:41.736Z,27.70
2022-12-26T13:28:18.404Z,29.23
2022-12-26T13:30:45.689Z,28.93
2022-12-26T13:33:16.019Z,28.80
2022-12-26T13:36:00.216Z,35.50
2022-12-26T13:38:55.740Z,31.50
2022-12-26T13:41:43.047Z,25.30
2022-12-26T13:44:19.062Z,26.53
2022-12-26T13:46:45.831Z,28.30
2022-12-26T13:49:38.854Z,25.37
2022-12-26T13:52:11.842Z,24.47
2022-12-26T13:55:04.830Z,26.93
2022-12-26T13:57:41.880Z,26.33
2022-12-26T14:00:44.460Z,28.77
2022-12-26T14:03:46.613Z,27.33
2022-12-26T14:06:22.828Z,25.07
2022-12-26T14:09:10.801Z,28.13
2022-12-26T14:12:02.495Z,26.23
2022-12-26T14:14:57.012Z,27.07
2022-12-26T14:18:08.469Z,28.73
2022-12-26T14:21:12.177Z,29.07
2022-12-26T14:23:57.881Z,30.17
2022-12-26T14:26:33.608Z,44.50
2022-12-26T14:29:31.137Z,36.60
2022-12-26T14:32:45.822Z,43.40
2022-12-26T14:35:43.843Z,54.00
2022-12-26T14:38:32.449Z,59.20
2022-12-26T14:41:05.360Z,50.17
2022-12-26T14:43:37.869Z,55.20
2022-12-26T14:46:32.732Z,63.77
2022-12-26T14:49:17.761Z,60.77
2022-12-26T14:51:45.320Z,54.50
2022-12-26T14:54:22.338Z,56.77
2022-12-26T14:56:53.085Z,62.70
2022-12-26T14:59:32.463Z,61.00
2022-12-26T15:02:12.215Z,91.77
2022-12-26T15:05:00.333Z,67.80
2022-12-26T15:08:13.430Z,61.57
2022-12-26T15:11:25.973Z,55.77
2022-12-26T15:14:57.603Z,57.30
2022-12-26T15:18:02.328Z,51.07
2022-12-26T15:21:12.235Z,50.40
2022-12-26T15:23:56.933Z,49.30
2022-12-26T15:26:44.919Z,49.00
2022-12-26T15:29:36.555Z,52.53
2022-12-26T15:32:12.140Z,58.63
2022-12-26T15:35:36.378Z,60.83
2022-12-26T15:38:22.878Z,49.87
2022-12-26T15:41:03.031Z,52.67
2022-12-26T15:44:13.176Z,51.27
2022-12-26T15:46:51.584Z,54.23
2022-12-26T15:50:18.492Z,44.93
2022-12-26T15:53:14.821Z,53.83
2022-12-26T15:56:03.293Z,52.63
2022-12-26T15:59:09.492Z,41.17
2022-12-26T16:01:40.825Z,46.80
2022-12-26T16:04:22.637Z,45.67
2022-12-26T16:07:30.702Z,48.17
2022-12-26T16:09:58.536Z,46.13
2022-12-26T16:12:28.475Z,41.90
2022-12-26T16:15:10.575Z,41.60
2022-12-26T16:17:39.490Z,40.67
2022-12-26T16:20:51.133Z,39.30
2022-12-26T16:23:22.373Z,42.17
2022-12-26T16:25:52.876Z,40.93
2022-12-26T16:28:27.295Z,40.57
2022-12-26T16:30:56.087Z,42.67
2022-12-26T16:33:23.207Z,43.90
2022-12-26T16:35:53.882Z,36.37
2022-12-26T16:38:30.804Z,40.53
2022-12-26T16:41:00.399Z,39.40
2022-12-26T16:43:34.582Z,43.10
2022-12-26T16:46:05.357Z,39.50
2022-12-26T16:48:34.193Z,37.60
2022-12-26T16:51:08.250Z,34.60
2022-12-26T16:53:35.173Z,36.17
2022-12-26T16:56:28.977Z,39.40
2022-12-26T16:59:16.883Z,34.00
2022-12-26T17:01:58.405Z,32.90
2022-12-26T17:04:28.431Z,30.73
2022-12-26T17:07:06.440Z,28.33
2022-12-26T17:09:44.654Z,31.60
2022-12-26T17:12:30.291Z,29.60
2022-12-26T17:14:58.928Z,27.10
2022-12-26T17:17:36.053Z,26.97
2022-12-26T17:20:21.906Z,27.77
2022-12-26T17:22:54.200Z,28.37
2022-12-26T17:25:30.254Z,25.73
2022-12-26T17:28:09.740Z,26.97
2022-12-26T17:30:42.015Z,26.93
2022-12-26T17:33:25.483Z,27.57
2022-12-26T17:38:46.309Z,25.63
2022-12-26T17:41:16.639Z,27.87
2022-12-26T17:43:45.636Z,30.40
2022-12-26T17:46:15.934Z,29.97
2022-12-26T17:48:43.771Z,24.37
2022-12-26T17:51:18.677Z,29.80
2022-12-26T17:53:50.631Z,31.33
2022-12-26T17:56:24.636Z,30.60
2022-12-26T17:58:51.658Z,32.20
2022-12-26T18:01:21.277Z,32.57
2022-12-26T18:03:49.345Z,31.10
2022-12-26T18:06:17.360Z,28.90
2022-12-26T18:08:44.945Z,35.13
2022-12-26T18:11:13.909Z,33.03
2022-12-26T18:13:41.904Z,33.60
2022-12-26T18:16:16.423Z,35.37
2022-12-26T18:18:46.024Z,30.23
2022-12-26T18:21:15.599Z,33.63
2022-12-26T18:23:42.965Z,33.23
2022-12-26T18:26:23.339Z,53.83
2022-12-26T18:28:51.875Z,75.20
2022-12-26T18:31:19.139Z,30.10
2022-12-26T18:33:46.111Z,27.67
2022-12-26T18:36:15.049Z,27.30
2022-12-26T18:38:42.998Z,25.53
2022-12-26T18:41:18.629Z,27.70
2022-12-26T18:43:46.299Z,26.30
2022-12-26T18:46:25.371Z,25.87
2022-12-26T18:48:54.173Z,28.00
2022-12-26T18:51:21.671Z,29.23
2022-12-26T18:53:48.740Z,31.30
2022-12-26T18:56:19.223Z,23.13
2022-12-26T18:58:52.392Z,28.80
2022-12-26T19:01:22.829Z,26.27
2022-12-26T19:03:49.987Z,25.60
2022-12-26T19:06:23.375Z,25.07
2022-12-26T19:08:50.299Z,27.40
2022-12-26T19:11:17.582Z,24.73
2022-12-26T19:13:44.553Z,25.10
2022-12-26T19:16:11.637Z,21.20
2022-12-26T19:18:38.654Z,22.37
2022-12-26T19:21:11.652Z,24.30
2022-12-26T19:23:38.675Z,25.93
2022-12-26T19:26:15.011Z,23.77
2022-12-26T19:28:42.080Z,21.60
2022-12-26T19:31:14.327Z,30.30
2022-12-26T19:33:41.757Z,40.70
2022-12-26T19:36:10.027Z,36.90
2022-12-26T19:38:37.571Z,28.40
2022-12-26T19:41:11.180Z,23.83
2022-12-26T19:43:38.944Z,27.87
2022-12-26T19:46:11.189Z,25.30
2022-12-26T19:48:39.402Z,26.60
2022-12-26T19:51:10.315Z,29.00
2022-12-26T19:53:38.444Z,35.37
2022-12-26T19:56:24.203Z,23.23
2022-12-26T19:58:56.189Z,22.30
2022-12-26T20:01:31.362Z,20.53
2022-12-26T20:04:01.973Z,19.60
2022-12-26T20:06:31.396Z,19.30
2022-12-26T20:09:02.128Z,18.53
2022-12-26T20:11:33.731Z,18.40
2022-12-26T20:14:02.681Z,17.90
2022-12-26T20:17:03.781Z,19.80
2022-12-26T20:19:16.854Z,20.03
2022-12-26T20:21:43.699Z,17.33
2022-12-26T20:24:12.513Z,18.33
2022-12-26T20:26:40.837Z,22.50
2022-12-26T20:29:08.886Z,19.17
2022-12-26T20:31:39.109Z,21.73
2022-12-26T20:34:06.726Z,21.57
2022-12-26T20:36:36.526Z,21.37
2022-12-26T20:39:10.878Z,21.43
2022-12-26T20:41:38.244Z,24.40
2022-12-26T20:44:05.549Z,19.93
2022-12-26T20:46:34.094Z,19.90
2022-12-26T20:49:04.451Z,25.43
2022-12-26T20:51:37.267Z,24.97
2022-12-26T20:54:08.570Z,21.70
2022-12-26T20:56:37.389Z,18.90
2022-12-26T20:59:06.374Z,19.30
2022-12-26T21:01:33.805Z,26.20
2022-12-26T21:04:01.119Z,20.77
2022-12-26T21:06:36.072Z,20.70
2022-12-26T21:09:05.397Z,21.83
2022-12-26T21:11:36.362Z,20.17
2022-12-26T21:14:08.794Z,19.87
2022-12-26T21:16:43.015Z,20.00
2022-12-26T21:19:15.415Z,20.17
2022-12-26T21:21:46.033Z,20.40
2022-12-26T21:24:27.883Z,22.80
2022-12-26T21:26:56.341Z,25.90
2022-12-26T21:29:28.156Z,19.40
2022-12-26T21:31:56.039Z,19.93
2022-12-26T21:34:26.463Z,18.87
2022-12-26T21:37:13.587Z,20.43
2022-12-26T21:39:41.698Z,20.20
2022-12-26T21:42:09.454Z,20.80
2022-12-26T21:44:37.080Z,21.10
2022-12-26T21:47:05.455Z,18.37
2022-12-26T21:49:32.364Z,20.00
2022-12-26T21:51:59.314Z,16.80
2022-12-26T21:54:48.599Z,18.50
2022-12-26T21:57:16.818Z,20.90
2022-12-26T21:59:55.893Z,22.07
2022-12-26T22:02:50.631Z,26.07
2022-12-26T22:05:19.621Z,22.10
2022-12-26T22:07:47.341Z,21.70
2022-12-26T22:10:33.580Z,19.00
2022-12-26T22:13:01.390Z,19.37
2022-12-26T22:15:47.142Z,24.23
2022-12-26T22:18:14.167Z,22.47
2022-12-26T22:20:41.489Z,21.20
2022-12-26T22:23:08.431Z,24.97
2022-12-26T22:25:35.344Z,20.57
2022-12-26T22:28:02.432Z,25.97
2022-12-26T22:30:29.367Z,24.27
2022-12-26T22:32:56.377Z,27.07
2022-12-26T22:35:23.257Z,25.50
2022-12-26T22:37:50.157Z,24.57
2022-12-26T22:40:17.111Z,25.27
2022-12-26T22:42:43.980Z,24.03
2022-12-26T22:45:11.056Z,25.77
2022-12-26T22:47:37.976Z,25.53
2022-12-26T22:50:05.281Z,22.17
2022-12-26T22:52:32.236Z,21.43
2022-12-26T22:54:59.155Z,20.87
2022-12-26T22:57:26.038Z,20.80
2022-12-26T23:00:10.560Z,22.93
2022-12-26T23:02:38.178Z,25.97
2022-12-26T23:05:06.463Z,30.57
2022-12-26T23:07:33.920Z,21.03
2022-12-26T23:10:01.271Z,22.00
2022-12-26T23:12:44.032Z,21.10
2022-12-26T23:15:17.484Z,21.80
2022-12-26T23:18:20.659Z,26.40
2022-12-26T23:21:06.394Z,24.77
2022-12-26T23:23:33.730Z,24.53
2022-12-26T23:26:01.687Z,20.87
2022-12-26T23:28:47.692Z,19.13
2022-12-26T23:31:15.182Z,20.47
2022-12-26T23:33:42.167Z,20.00
2022-12-26T23:36:09.284Z,25.23
2022-12-26T23:38:36.351Z,23.73
2022-12-26T23:41:03.315Z,21.07
2022-12-26T23:43:33.349Z,20.60
2022-12-26T23:46:00.749Z,22.23
2022-12-26T23:48:27.884Z,23.27
2022-12-26T23:51:06.978Z,26.20
2022-12-26T23:53:34.550Z,22.97
2022-12-26T23:56:01.445Z,25.97
2022-12-26T23:58:28.552Z,25.73
